createdAt,value
2022-09-18T00:00:10.156Z,13.92
2022-09-18T00:02:36.577Z,13.88
2022-09-18T00:05:03.147Z,13.93
2022-09-18T00:07:29.657Z,13.98
2022-09-18T00:09:56.035Z,13.77
2022-09-18T00:12:22.404Z,14.08
2022-09-18T00:14:48.983Z,14.17
2022-09-18T00:17:15.373Z,13.81
2022-09-18T00:19:41.816Z,13.85
2022-09-18T00:22:08.242Z,13.93
2022-09-18T00:24:34.647Z,13.79
2022-09-18T00:27:01.027Z,13.77
2022-09-18T00:29:27.536Z,13.80
2022-09-18T00:31:54.017Z,13.79
2022-09-18T00:34:20.519Z,13.73
2022-09-18T00:36:47.090Z,13.58
2022-09-18T00:39:13.683Z,13.62
2022-09-18T00:41:41.853Z,13.52
2022-09-18T00:44:34.989Z,13.56
2022-09-18T00:47:07.082Z,13.47
2022-09-18T00:49:33.993Z,13.48
2022-09-18T00:52:01.653Z,13.40
2022-09-18T00:54:33.435Z,13.19
2022-09-18T00:57:05.601Z,13.43
2022-09-18T00:59:33.449Z,13.35
2022-09-18T01:02:00.944Z,13.23
2022-09-18T01:04:28.459Z,13.20
2022-09-18T01:07:06.257Z,13.30
2022-09-18T01:09:48.270Z,13.48
2022-09-18T01:12:37.858Z,13.60
2022-09-18T01:15:22.317Z,13.69
2022-09-18T01:18:03.420Z,13.63
2022-09-18T01:21:09.768Z,13.53
2022-09-18T01:23:56.365Z,13.61
2022-09-18T01:26:44.507Z,13.65
2022-09-18T01:29:20.910Z,13.61
2022-09-18T01:31:54.644Z,13.48
2022-09-18T01:34:28.110Z,13.53
2022-09-18T01:37:00.169Z,13.54
2022-09-18T01:39:36.338Z,13.54
2022-09-18T01:42:03.673Z,13.33
2022-09-18T01:44:31.896Z,13.35
2022-09-18T01:47:00.464Z,13.27
2022-09-18T01:49:32.514Z,13.34
2022-09-18T01:52:09.468Z,13.37
2022-09-18T01:54:38.612Z,13.14
2022-09-18T01:57:11.829Z,13.24
2022-09-18T01:59:57.194Z,13.27
2022-09-18T02:02:32.905Z,13.21
2022-09-18T02:05:00.863Z,13.45
2022-09-18T02:07:37.451Z,13.27
2022-09-18T02:10:04.500Z,13.20
2022-09-18T02:12:32.930Z,13.27
2022-09-18T02:15:03.682Z,13.43
2022-09-18T02:17:36.371Z,13.48
2022-09-18T02:20:23.285Z,13.40
2022-09-18T02:22:52.024Z,13.34
2022-09-18T02:25:22.062Z,13.37
2022-09-18T02:27:49.984Z,13.35
2022-09-18T02:30:16.457Z,13.34
2022-09-18T02:32:43.014Z,13.29
2022-09-18T02:35:10.272Z,13.33
2022-09-18T02:37:58.143Z,13.25
2022-09-18T02:40:38.147Z,13.27
2022-09-18T02:43:16.628Z,13.37
2022-09-18T02:46:11.098Z,13.30
2022-09-18T02:48:47.856Z,13.29
2022-09-18T02:51:36.139Z,13.21
2022-09-18T02:54:08.326Z,13.13
2022-09-18T02:56:40.348Z,13.02
2022-09-18T02:59:11.220Z,13.05
2022-09-18T03:01:41.512Z,13.00
2022-09-18T03:04:12.145Z,12.87
2022-09-18T03:06:38.553Z,12.87
2022-09-18T03:09:05.275Z,12.82
2022-09-18T03:11:31.697Z,12.68
2022-09-18T03:13:58.085Z,12.75
2022-09-18T03:16:24.589Z,12.75
2022-09-18T03:18:51.083Z,12.68
2022-09-18T03:21:17.592Z,12.64
2022-09-18T03:23:45.626Z,12.68
2022-09-18T03:26:12.486Z,12.58
2022-09-18T03:28:38.957Z,12.65
2022-09-18T03:31:05.449Z,12.64
2022-09-18T03:33:31.855Z,12.64
2022-09-18T03:35:58.512Z,12.63
2022-09-18T03:38:24.958Z,12.54
2022-09-18T03:40:51.530Z,12.55
2022-09-18T03:43:18.111Z,12.63
2022-09-18T03:45:44.636Z,12.62
2022-09-18T03:48:11.067Z,12.68
2022-09-18T03:50:37.501Z,12.59
2022-09-18T03:53:03.898Z,12.65
2022-09-18T03:55:30.321Z,12.63
2022-09-18T03:57:57.361Z,12.67
2022-09-18T04:00:23.789Z,12.69
2022-09-18T04:02:50.290Z,12.79
2022-09-18T04:05:16.762Z,12.85
2022-09-18T04:07:43.302Z,12.97
2022-09-18T04:10:09.899Z,13.03
2022-09-18T04:12:36.326Z,12.97
2022-09-18T04:15:02.726Z,12.95
2022-09-18T04:17:29.091Z,13.06
2022-09-18T04:19:55.513Z,13.02
2022-09-18T04:22:22.381Z,13.01
2022-09-18T04:24:50.278Z,12.93
2022-09-18T04:27:17.019Z,12.73
2022-09-18T04:29:43.417Z,12.74
2022-09-18T04:32:09.859Z,12.70
2022-09-18T04:34:36.290Z,12.55
2022-09-18T04:37:05.770Z,12.50
2022-09-18T04:39:34.857Z,12.51
2022-09-18T04:42:01.763Z,12.50
2022-09-18T04:44:28.149Z,12.59
2022-09-18T04:46:54.571Z,12.70
2022-09-18T04:49:21.513Z,12.78
2022-09-18T04:51:47.930Z,12.82
2022-09-18T04:54:14.347Z,12.87
2022-09-18T04:56:41.201Z,12.92
2022-09-18T04:59:07.875Z,13.00
2022-09-18T05:01:34.976Z,13.00
2022-09-18T05:04:01.542Z,12.87
2022-09-18T05:06:27.924Z,12.73
2022-09-18T05:08:54.321Z,12.74
2022-09-18T05:11:20.750Z,12.62
2022-09-18T05:13:50.254Z,12.63
2022-09-18T05:16:16.871Z,12.58
2022-09-18T05:18:43.338Z,12.54
2022-09-18T05:21:09.786Z,12.55
2022-09-18T05:23:36.174Z,12.53
2022-09-18T05:26:02.873Z,12.64
2022-09-18T05:28:29.250Z,12.62
2022-09-18T05:31:00.329Z,12.64
2022-09-18T05:33:26.872Z,12.64
2022-09-18T05:35:54.989Z,12.72
2022-09-18T05:38:21.375Z,12.60
2022-09-18T05:40:48.918Z,12.68
2022-09-18T05:43:15.743Z,12.73
2022-09-18T05:45:42.678Z,12.85
2022-09-18T05:48:09.922Z,12.94
2022-09-18T05:50:36.574Z,13.01
2022-09-18T05:53:09.771Z,13.15
2022-09-18T05:55:36.205Z,13.12
2022-09-18T05:58:04.705Z,13.22
2022-09-18T06:00:33.109Z,13.29
2022-09-18T06:03:01.662Z,13.48
2022-09-18T06:05:30.313Z,13.52
2022-09-18T06:08:01.648Z,13.60
2022-09-18T06:10:29.863Z,13.73
2022-09-18T06:13:10.619Z,13.86
2022-09-18T06:15:37.169Z,14.17
2022-09-18T06:18:05.354Z,14.12
2022-09-18T06:20:31.762Z,14.20
2022-09-18T06:23:00.335Z,14.31
2022-09-18T06:25:28.316Z,14.41
2022-09-18T06:28:00.005Z,14.25
2022-09-18T06:30:28.664Z,14.39
2022-09-18T06:32:56.815Z,14.41
2022-09-18T06:35:23.717Z,14.30
2022-09-18T06:37:50.270Z,14.28
2022-09-18T06:40:16.833Z,14.34
2022-09-18T06:42:46.019Z,14.57
2022-09-18T06:45:12.897Z,14.65
2022-09-18T06:47:39.334Z,14.63
2022-09-18T06:50:08.024Z,14.68
2022-09-18T06:52:34.578Z,14.90
2022-09-18T06:55:01.003Z,15.10
2022-09-18T06:57:27.432Z,15.16
2022-09-18T06:59:53.835Z,15.30
2022-09-18T07:02:20.252Z,15.40
2022-09-18T07:04:46.952Z,15.39
2022-09-18T07:07:13.411Z,15.86
2022-09-18T07:09:39.803Z,15.83
2022-09-18T07:12:06.322Z,15.83
2022-09-18T07:14:32.741Z,15.88
2022-09-18T07:16:59.246Z,15.53
2022-09-18T07:19:25.648Z,15.69
2022-09-18T07:21:52.661Z,15.58
2022-09-18T07:24:19.091Z,15.61
2022-09-18T07:26:45.506Z,15.57
2022-09-18T07:29:11.887Z,15.49
2022-09-18T07:31:38.394Z,15.24
2022-09-18T07:34:04.890Z,15.45
2022-09-18T07:36:32.542Z,15.63
2022-09-18T07:38:58.997Z,15.82
2022-09-18T07:41:25.418Z,16.00
2022-09-18T07:43:51.864Z,15.97
2022-09-18T07:46:18.404Z,15.93
2022-09-18T07:48:44.845Z,16.06
2022-09-18T07:51:11.265Z,15.76
2022-09-18T07:53:37.695Z,16.21
2022-09-18T07:56:11.322Z,16.36
2022-09-18T07:58:38.405Z,16.46
2022-09-18T08:01:05.674Z,16.49
2022-09-18T08:03:32.258Z,16.50
2022-09-18T08:05:58.763Z,16.61
2022-09-18T08:08:25.292Z,16.77
2022-09-18T08:10:51.874Z,17.19
2022-09-18T08:13:18.264Z,17.53
2022-09-18T08:15:44.795Z,17.54
2022-09-18T08:18:11.632Z,17.28
2022-09-18T08:20:38.423Z,17.17
2022-09-18T08:23:07.351Z,17.24
2022-09-18T08:25:34.036Z,17.00
2022-09-18T08:28:01.701Z,16.97
2022-09-18T08:30:28.751Z,17.02
2022-09-18T08:32:59.993Z,17.09
2022-09-18T08:35:26.434Z,17.38
2022-09-18T08:37:52.889Z,17.70
2022-09-18T08:40:22.242Z,18.20
2022-09-18T08:43:13.592Z,18.25
2022-09-18T08:46:02.141Z,17.56
2022-09-18T08:48:35.677Z,17.93
2022-09-18T08:51:06.968Z,17.69
2022-09-18T08:53:38.510Z,18.06
2022-09-18T08:56:07.118Z,18.50
2022-09-18T08:58:52.953Z,18.53
2022-09-18T09:01:20.051Z,18.11
2022-09-18T09:04:01.935Z,17.69
2022-09-18T09:06:31.359Z,17.69
2022-09-18T09:09:21.635Z,17.48
2022-09-18T09:12:13.064Z,17.91
2022-09-18T09:14:57.945Z,18.66
2022-09-18T09:17:41.359Z,18.76
2022-09-18T09:20:21.290Z,18.47
2022-09-18T09:22:54.481Z,18.27
2022-09-18T09:25:25.725Z,18.48
2022-09-18T09:28:16.351Z,18.68
2022-09-18T09:30:45.051Z,18.60
2022-09-18T09:33:40.366Z,18.94
2022-09-18T09:36:09.731Z,19.15
2022-09-18T09:38:47.077Z,19.56
2022-09-18T09:41:18.429Z,19.70
2022-09-18T09:44:02.734Z,19.61
2022-09-18T09:47:01.519Z,19.78
2022-09-18T09:49:51.183Z,19.50
2022-09-18T09:52:23.897Z,19.00
2022-09-18T09:54:54.248Z,18.94
2022-09-18T09:57:48.295Z,18.45
2022-09-18T10:00:19.767Z,18.07
2022-09-18T10:03:08.189Z,17.77
2022-09-18T10:05:45.314Z,17.52
2022-09-18T10:08:19.691Z,17.23
2022-09-18T10:10:54.514Z,16.64
2022-09-18T10:13:29.483Z,15.39
2022-09-18T10:16:02.401Z,15.04
2022-09-18T10:18:35.328Z,14.58
2022-09-18T10:21:11.956Z,14.02
2022-09-18T10:23:40.407Z,13.70
2022-09-18T10:26:11.142Z,13.74
2022-09-18T10:28:37.582Z,13.74
2022-09-18T10:31:10.900Z,13.78
2022-09-18T10:33:39.993Z,13.77
2022-09-18T10:36:33.165Z,13.94
2022-09-18T10:39:00.188Z,14.06
2022-09-18T10:41:28.516Z,14.25
2022-09-18T10:43:56.551Z,14.06
2022-09-18T10:46:25.493Z,14.01
2022-09-18T10:48:51.924Z,14.16
2022-09-18T10:51:21.531Z,14.19
2022-09-18T10:54:18.567Z,14.10
2022-09-18T10:56:45.993Z,14.14
2022-09-18T10:59:28.340Z,14.43
2022-09-18T11:01:59.543Z,14.39
2022-09-18T11:04:27.606Z,14.65
2022-09-18T11:06:54.056Z,14.78
2022-09-18T11:09:37.654Z,15.04
2022-09-18T11:12:04.271Z,15.68
2022-09-18T11:14:38.511Z,16.27
2022-09-18T11:17:05.469Z,16.65
2022-09-18T11:19:33.566Z,17.25
2022-09-18T11:22:06.938Z,17.63
2022-09-18T11:24:35.457Z,17.82
2022-09-18T11:27:19.616Z,18.25
2022-09-18T11:29:46.233Z,18.27
2022-09-18T11:32:25.602Z,18.37
2022-09-18T11:34:55.826Z,18.64
2022-09-18T11:37:30.479Z,18.88
2022-09-18T11:40:01.067Z,19.06
2022-09-18T11:42:27.673Z,19.32
2022-09-18T11:45:07.708Z,19.37
2022-09-18T11:47:43.820Z,19.58
2022-09-18T11:50:22.144Z,19.34
2022-09-18T11:52:52.935Z,19.27
2022-09-18T11:55:36.950Z,19.45
2022-09-18T11:58:09.382Z,19.25
2022-09-18T12:00:40.726Z,19.10
2022-09-18T12:03:13.206Z,19.49
2022-09-18T12:05:39.539Z,19.14
2022-09-18T12:08:04.850Z,18.97
2022-09-18T12:10:50.711Z,19.05
2022-09-18T12:13:29.265Z,17.74
2022-09-18T12:16:19.215Z,16.90
2022-09-18T12:19:08.255Z,16.34
2022-09-18T12:21:43.392Z,15.29
2022-09-18T12:24:13.103Z,15.70
2022-09-18T12:27:10.299Z,15.99
2022-09-18T12:29:45.865Z,16.71
2022-09-18T12:32:31.084Z,16.87
2022-09-18T12:35:53.201Z,16.39
2022-09-18T12:38:31.277Z,16.41
2022-09-18T12:41:03.999Z,16.18
2022-09-18T12:44:02.130Z,16.17
2022-09-18T12:46:59.848Z,15.82
2022-09-18T12:49:40.445Z,15.84
2022-09-18T12:52:28.932Z,15.51
2022-09-18T12:55:19.801Z,15.22
2022-09-18T12:58:04.268Z,15.39
2022-09-18T13:00:32.148Z,15.51
2022-09-18T13:03:11.515Z,15.41
2022-09-18T13:05:45.348Z,15.56
2022-09-18T13:08:17.927Z,15.84
2022-09-18T13:10:45.992Z,16.53
2022-09-18T13:13:19.879Z,16.88
2022-09-18T13:15:59.961Z,17.02
2022-09-18T13:18:48.082Z,17.50
2022-09-18T13:21:21.189Z,17.31
2022-09-18T13:23:48.081Z,17.43
2022-09-18T13:26:15.284Z,17.27
2022-09-18T13:28:42.579Z,17.58
2022-09-18T13:31:15.397Z,17.47
2022-09-18T13:33:55.246Z,17.79
2022-09-18T13:36:28.623Z,18.27
2022-09-18T13:38:57.832Z,18.41
2022-09-18T13:41:24.402Z,18.70
2022-09-18T13:43:53.695Z,18.99
2022-09-18T13:46:32.821Z,18.51
2022-09-18T13:49:02.499Z,18.45
2022-09-18T13:51:36.212Z,17.29
2022-09-18T13:54:11.989Z,16.13
2022-09-18T13:57:14.976Z,15.38
2022-09-18T13:59:45.252Z,15.04
2022-09-18T14:02:30.924Z,15.24
2022-09-18T14:05:17.900Z,15.51
2022-09-18T14:07:56.288Z,15.44
2022-09-18T14:10:24.227Z,15.55
2022-09-18T14:13:06.281Z,15.97
2022-09-18T14:15:32.902Z,16.23
2022-09-18T14:18:15.405Z,16.31
2022-09-18T14:20:48.463Z,16.20
2022-09-18T14:23:34.386Z,16.50
2022-09-18T14:26:00.957Z,16.43
2022-09-18T14:28:30.622Z,16.75
2022-09-18T14:31:14.488Z,17.11
2022-09-18T14:33:42.708Z,17.46
2022-09-18T14:36:14.545Z,17.62
2022-09-18T14:38:41.319Z,17.16
2022-09-18T14:41:29.150Z,17.14
2022-09-18T14:44:00.235Z,17.22
2022-09-18T14:46:27.811Z,16.87
2022-09-18T14:48:54.716Z,16.92
2022-09-18T14:51:23.264Z,17.16
2022-09-18T14:53:52.708Z,17.24
2022-09-18T14:56:32.741Z,17.30
2022-09-18T14:59:01.234Z,17.19
2022-09-18T15:01:30.131Z,16.98
2022-09-18T15:03:58.297Z,17.00
2022-09-18T15:06:37.664Z,17.23
2022-09-18T15:09:05.459Z,17.27
2022-09-18T15:11:46.683Z,17.38
2022-09-18T15:14:27.024Z,17.49
2022-09-18T15:16:55.493Z,17.19
2022-09-18T15:19:21.896Z,17.08
2022-09-18T15:21:48.921Z,16.62
2022-09-18T15:24:17.323Z,15.16
2022-09-18T15:26:47.662Z,14.93
2022-09-18T15:30:03.829Z,14.74
2022-09-18T15:32:38.278Z,14.90
2022-09-18T15:35:06.391Z,14.79
2022-09-18T15:37:34.614Z,14.78
2022-09-18T15:40:04.692Z,14.34
2022-09-18T15:42:34.342Z,14.54
2022-09-18T15:45:00.743Z,14.39
2022-09-18T15:47:34.601Z,14.35
2022-09-18T15:50:08.615Z,14.31
